createdAt,value
2018-05-26T00:00:23.100Z,10.07
2018-05-26T00:02:51.682Z,9.50
2018-05-26T00:05:20.251Z,9.33
2018-05-26T00:07:48.854Z,9.10
2018-05-26T00:10:17.451Z,8.73
2018-05-26T00:12:46.016Z,8.33
2018-05-26T00:15:14.578Z,8.47
2018-05-26T00:17:43.132Z,8.40
2018-05-26T00:20:11.709Z,9.30
2018-05-26T00:22:40.036Z,9.57
2018-05-26T00:25:08.601Z,8.67
2018-05-26T00:27:37.186Z,10.57
2018-05-26T00:30:07.399Z,9.63
2018-05-26T00:32:35.964Z,9.67
2018-05-26T00:35:04.529Z,9.70
2018-05-26T00:37:33.094Z,9.90
2018-05-26T00:40:01.642Z,9.67
2018-05-26T00:42:30.365Z,11.10
2018-05-26T00:44:58.955Z,10.53
2018-05-26T00:47:27.525Z,10.33
2018-05-26T00:49:56.100Z,10.90
2018-05-26T00:52:24.663Z,12.33
2018-05-26T00:54:53.277Z,11.70
2018-05-26T00:57:21.937Z,11.97
2018-05-26T00:59:50.557Z,11.33
2018-05-26T01:02:19.139Z,11.03
2018-05-26T01:04:48.609Z,10.40
2018-05-26T01:07:17.219Z,9.83
2018-05-26T01:09:45.799Z,10.57
2018-05-26T01:12:14.383Z,11.23
2018-05-26T01:14:42.969Z,11.37
2018-05-26T01:17:11.531Z,10.97
2018-05-26T01:19:40.108Z,10.73
2018-05-26T01:22:08.670Z,11.00
2018-05-26T01:24:37.220Z,9.77
2018-05-26T01:27:05.825Z,9.93
2018-05-26T01:29:34.388Z,10.10
2018-05-26T01:32:02.953Z,9.43
2018-05-26T01:34:31.517Z,9.37
2018-05-26T01:37:00.062Z,9.40
2018-05-26T01:39:28.621Z,9.20
2018-05-26T01:41:57.177Z,9.30
2018-05-26T01:44:25.739Z,9.60
2018-05-26T01:46:54.296Z,9.37
2018-05-26T01:49:22.867Z,9.37
2018-05-26T01:51:51.484Z,10.37
2018-05-26T01:54:20.057Z,10.20
2018-05-26T01:56:48.642Z,9.93
2018-05-26T01:59:17.226Z,11.40
2018-05-26T02:01:45.798Z,11.47
2018-05-26T02:04:14.364Z,11.37
2018-05-26T02:06:42.929Z,10.57
2018-05-26T02:09:11.508Z,12.33
2018-05-26T02:11:40.082Z,12.00
2018-05-26T02:14:08.647Z,12.07
2018-05-26T02:16:37.220Z,15.33
2018-05-26T02:19:05.790Z,15.80
2018-05-26T02:21:34.357Z,14.83
2018-05-26T02:24:02.927Z,15.80
2018-05-26T02:26:31.491Z,14.47
2018-05-26T02:29:00.076Z,14.20
2018-05-26T02:31:28.641Z,14.10
2018-05-26T02:33:57.216Z,12.87
2018-05-26T02:36:25.788Z,17.17
2018-05-26T02:38:54.370Z,14.57
2018-05-26T02:41:22.918Z,13.20
2018-05-26T02:43:51.497Z,18.20
2018-05-26T02:46:20.270Z,16.10
2018-05-26T02:48:48.850Z,20.27
2018-05-26T02:51:17.434Z,12.53
2018-05-26T02:53:46.013Z,34.30
2018-05-26T02:56:14.619Z,43.60
2018-05-26T02:58:43.187Z,13.30
2018-05-26T03:01:11.757Z,13.80
2018-05-26T03:03:40.121Z,12.50
2018-05-26T03:06:14.066Z,12.53
2018-05-26T03:08:47.931Z,12.30
2018-05-26T03:11:21.947Z,12.80
2018-05-26T03:13:56.050Z,14.10
2018-05-26T03:16:29.886Z,13.60
2018-05-26T03:18:57.865Z,12.90
2018-05-26T03:21:26.431Z,12.93
2018-05-26T03:23:54.993Z,12.43
2018-05-26T03:26:23.559Z,12.40
2018-05-26T03:28:53.320Z,12.80
2018-05-26T03:31:22.093Z,12.77
2018-05-26T03:33:50.665Z,13.23
2018-05-26T03:36:19.288Z,14.33
2018-05-26T03:38:48.013Z,13.40
2018-05-26T03:41:16.613Z,13.80
2018-05-26T03:43:46.280Z,13.10
2018-05-26T03:46:14.871Z,14.13
2018-05-26T03:48:43.435Z,13.27
2018-05-26T03:51:11.995Z,13.90
2018-05-26T03:53:40.546Z,13.60
2018-05-26T03:56:20.135Z,13.40
2018-05-26T03:58:59.707Z,12.80
2018-05-26T04:01:28.917Z,12.53
2018-05-26T04:03:57.484Z,11.93
2018-05-26T04:06:26.045Z,12.90
2018-05-26T04:08:54.603Z,12.83
2018-05-26T04:11:24.894Z,14.00
2018-05-26T04:13:53.612Z,13.63
2018-05-26T04:16:22.166Z,14.43
2018-05-26T04:18:50.728Z,13.73
2018-05-26T04:21:19.296Z,13.20
2018-05-26T04:23:47.853Z,13.80
2018-05-26T04:26:16.475Z,14.40
2018-05-26T04:28:45.044Z,13.90
2018-05-26T04:31:13.607Z,14.00
2018-05-26T04:33:42.202Z,14.57
2018-05-26T04:36:10.763Z,14.17
2018-05-26T04:38:39.313Z,13.50
2018-05-26T04:41:07.875Z,15.17
2018-05-26T04:43:36.430Z,14.77
2018-05-26T04:46:04.986Z,14.73
2018-05-26T04:48:33.547Z,15.30
2018-05-26T04:51:02.126Z,13.83
2018-05-26T04:53:30.732Z,13.20
2018-05-26T04:55:59.300Z,12.90
2018-05-26T04:58:27.863Z,13.77
2018-05-26T05:00:56.415Z,12.43
2018-05-26T05:03:25.015Z,12.50
2018-05-26T05:05:53.650Z,11.90
2018-05-26T05:08:22.216Z,11.97
2018-05-26T05:10:50.788Z,12.10
2018-05-26T05:13:19.342Z,11.80
2018-05-26T05:15:47.898Z,12.37
2018-05-26T05:18:16.468Z,11.67
2018-05-26T05:20:45.034Z,11.30
2018-05-26T05:23:13.600Z,10.63
2018-05-26T05:25:42.163Z,10.73
2018-05-26T05:28:10.719Z,9.90
2018-05-26T05:30:39.282Z,10.23
2018-05-26T05:33:07.848Z,10.07
2018-05-26T05:35:37.544Z,10.10
2018-05-26T05:38:06.109Z,10.87
2018-05-26T05:40:34.675Z,9.83
2018-05-26T05:43:03.225Z,9.73
2018-05-26T05:45:31.774Z,8.73
2018-05-26T05:48:00.324Z,9.50
2018-05-26T05:50:28.880Z,8.10
2018-05-26T05:52:57.456Z,7.23
2018-05-26T05:55:26.028Z,7.57
2018-05-26T05:57:54.575Z,7.27
2018-05-26T06:00:23.265Z,7.37
2018-05-26T06:02:51.817Z,6.97
2018-05-26T06:05:20.371Z,7.03
2018-05-26T06:07:48.932Z,7.60
2018-05-26T06:10:17.482Z,6.60
2018-05-26T06:12:46.026Z,6.60
2018-05-26T06:15:14.596Z,6.33
2018-05-26T06:17:43.004Z,5.67
2018-05-26T06:20:11.559Z,6.10
2018-05-26T06:22:40.143Z,5.83
2018-05-26T06:25:08.695Z,5.97
2018-05-26T06:27:37.238Z,6.43
2018-05-26T06:30:06.383Z,6.40
2018-05-26T06:32:34.928Z,6.17
2018-05-26T06:35:03.480Z,5.90
2018-05-26T06:37:32.037Z,5.97
2018-05-26T06:40:00.586Z,6.17
2018-05-26T06:42:29.165Z,5.67
2018-05-26T06:44:57.787Z,5.60
2018-05-26T06:47:26.373Z,5.87
2018-05-26T06:49:54.938Z,6.17
2018-05-26T06:52:23.523Z,6.03
2018-05-26T06:54:52.067Z,7.20
2018-05-26T06:57:20.614Z,6.80
2018-05-26T06:59:49.202Z,6.37
2018-05-26T07:02:17.763Z,6.37
2018-05-26T07:04:46.367Z,6.70
2018-05-26T07:07:14.957Z,24.33
2018-05-26T07:09:43.507Z,11.07
2018-05-26T07:12:12.061Z,6.30
2018-05-26T07:14:40.728Z,6.37
2018-05-26T07:17:09.339Z,6.20
2018-05-26T07:19:37.897Z,6.53
2018-05-26T07:22:06.820Z,6.20
2018-05-26T07:24:35.547Z,6.40
2018-05-26T07:27:04.217Z,6.13
2018-05-26T07:29:32.781Z,7.10
2018-05-26T07:32:01.370Z,6.60
2018-05-26T07:34:29.991Z,6.70
2018-05-26T07:36:59.462Z,6.30
2018-05-26T07:39:28.140Z,6.73
2018-05-26T07:41:56.820Z,6.10
2018-05-26T07:44:25.544Z,6.40
2018-05-26T07:46:54.140Z,8.33
2018-05-26T07:49:22.727Z,6.47
2018-05-26T07:51:51.479Z,7.00
2018-05-26T07:54:20.043Z,6.83
2018-05-26T07:56:48.711Z,6.50
2018-05-26T07:59:17.271Z,6.63
2018-05-26T08:01:45.870Z,6.23
2018-05-26T08:04:14.489Z,6.67
2018-05-26T08:06:42.802Z,6.47
2018-05-26T08:09:11.460Z,7.20
2018-05-26T08:11:40.026Z,7.07
2018-05-26T08:14:08.583Z,7.23
2018-05-26T08:16:37.143Z,7.30
2018-05-26T08:19:05.719Z,6.50
2018-05-26T08:21:34.275Z,6.93
2018-05-26T08:24:02.920Z,7.97
2018-05-26T08:26:31.516Z,6.60
2018-05-26T08:29:00.076Z,6.83
2018-05-26T08:31:28.639Z,7.13
2018-05-26T08:33:57.200Z,6.43
2018-05-26T08:36:25.755Z,6.20
2018-05-26T08:38:54.319Z,5.93
2018-05-26T08:41:22.879Z,7.70
2018-05-26T08:43:51.448Z,16.13
2018-05-26T08:46:20.003Z,7.83
2018-05-26T08:48:48.565Z,6.33
2018-05-26T08:51:17.114Z,5.83
2018-05-26T08:53:45.674Z,5.90
2018-05-26T08:56:14.258Z,6.37
2018-05-26T08:58:42.859Z,6.23
2018-05-26T09:01:11.470Z,5.67
2018-05-26T09:03:40.029Z,5.70
2018-05-26T09:06:08.579Z,7.10
2018-05-26T09:08:37.129Z,6.70
2018-05-26T09:11:05.679Z,8.57
2018-05-26T09:13:34.231Z,6.17
2018-05-26T09:16:02.481Z,6.30
2018-05-26T09:18:31.204Z,6.30
2018-05-26T09:20:59.756Z,5.43
2018-05-26T09:23:28.404Z,5.73
2018-05-26T09:25:56.962Z,5.17
2018-05-26T09:28:25.540Z,5.80
2018-05-26T09:30:54.108Z,5.40
2018-05-26T09:33:22.659Z,5.30
2018-05-26T09:35:51.224Z,5.40
2018-05-26T09:38:19.784Z,5.70
2018-05-26T09:40:48.336Z,4.80
2018-05-26T09:43:16.896Z,4.87
2018-05-26T09:45:45.455Z,5.13
2018-05-26T09:48:14.006Z,5.07
2018-05-26T09:50:42.566Z,5.17
2018-05-26T09:53:11.123Z,4.80
2018-05-26T09:55:39.676Z,5.37
2018-05-26T09:58:08.227Z,5.20
2018-05-26T10:00:36.799Z,5.10
2018-05-26T10:03:05.356Z,5.17
2018-05-26T10:05:33.906Z,5.40
2018-05-26T10:08:02.501Z,4.50
2018-05-26T10:10:31.052Z,4.43
2018-05-26T10:12:59.598Z,4.83
2018-05-26T10:15:28.207Z,4.63
2018-05-26T10:17:57.699Z,4.63
2018-05-26T10:20:26.273Z,4.27
2018-05-26T10:22:54.991Z,4.87
2018-05-26T10:25:23.548Z,4.30
2018-05-26T10:27:52.100Z,4.73
2018-05-26T10:30:20.648Z,4.73
2018-05-26T10:32:49.292Z,4.70
2018-05-26T10:35:17.840Z,4.20
2018-05-26T10:37:46.403Z,4.47
2018-05-26T10:40:14.961Z,4.43
2018-05-26T10:42:43.527Z,4.13
2018-05-26T10:45:12.075Z,4.30
2018-05-26T10:47:40.633Z,4.67
2018-05-26T10:50:09.634Z,3.70
2018-05-26T10:52:38.201Z,4.30
2018-05-26T10:55:06.771Z,4.30
2018-05-26T10:57:35.373Z,4.40
2018-05-26T11:00:05.621Z,4.60
2018-05-26T11:02:34.170Z,4.47
2018-05-26T11:05:02.728Z,4.70
2018-05-26T11:07:31.284Z,4.63
2018-05-26T11:09:59.873Z,4.50
2018-05-26T11:12:28.432Z,4.07
2018-05-26T11:14:56.983Z,4.53
2018-05-26T11:17:25.555Z,5.37
2018-05-26T11:19:54.108Z,4.23
2018-05-26T11:22:22.673Z,4.77
2018-05-26T11:24:51.314Z,4.37
2018-05-26T11:27:20.010Z,4.10
2018-05-26T11:29:48.606Z,4.70
2018-05-26T11:32:17.184Z,4.63
2018-05-26T11:34:45.753Z,4.90
2018-05-26T11:37:14.311Z,4.90
2018-05-26T11:39:42.854Z,4.70
2018-05-26T11:42:11.410Z,4.23
2018-05-26T11:44:40.053Z,4.60
2018-05-26T11:47:08.615Z,3.93
2018-05-26T11:49:37.197Z,4.03
2018-05-26T11:52:05.766Z,4.47
2018-05-26T11:54:34.341Z,7.27
2018-05-26T11:57:02.921Z,6.17
2018-05-26T11:59:31.467Z,5.80
2018-05-26T12:02:00.055Z,4.53
2018-05-26T12:04:28.763Z,4.97
2018-05-26T12:06:57.317Z,4.80
2018-05-26T12:09:25.876Z,4.70
2018-05-26T12:11:54.432Z,5.17
2018-05-26T12:14:22.979Z,5.37
2018-05-26T12:16:51.525Z,5.00
2018-05-26T12:19:20.066Z,4.93
2018-05-26T12:21:48.619Z,5.50
2018-05-26T12:24:17.171Z,5.33
2018-05-26T12:26:45.747Z,5.37
2018-05-26T12:29:14.313Z,5.10
2018-05-26T12:31:42.883Z,6.20
2018-05-26T12:34:11.431Z,6.03
2018-05-26T12:36:39.993Z,5.03
2018-05-26T12:39:08.568Z,4.90
2018-05-26T12:41:37.123Z,5.20
2018-05-26T12:44:05.681Z,5.53
2018-05-26T12:46:34.230Z,5.00
2018-05-26T12:49:02.771Z,5.33
2018-05-26T12:51:31.328Z,5.17
2018-05-26T12:53:59.869Z,5.20
2018-05-26T12:56:28.419Z,4.70
2018-05-26T12:58:56.967Z,5.20
2018-05-26T13:01:25.533Z,5.87
2018-05-26T13:03:54.081Z,5.37
2018-05-26T13:06:22.626Z,5.07
2018-05-26T13:08:51.219Z,5.40
2018-05-26T13:11:19.772Z,4.57
2018-05-26T13:13:48.321Z,4.93
2018-05-26T13:16:16.870Z,4.80
2018-05-26T13:18:45.433Z,4.93
2018-05-26T13:21:14.027Z,4.90
2018-05-26T13:23:42.575Z,4.77
2018-05-26T13:26:11.163Z,4.83
2018-05-26T13:28:39.743Z,5.07
2018-05-26T13:31:08.319Z,5.67
2018-05-26T13:33:36.873Z,5.27
2018-05-26T13:36:05.456Z,4.70
2018-05-26T13:38:34.013Z,5.10
2018-05-26T13:41:02.612Z,4.70
2018-05-26T13:43:31.165Z,5.17
2018-05-26T13:45:59.722Z,4.43
2018-05-26T13:48:28.298Z,4.40
2018-05-26T13:50:57.024Z,4.67
2018-05-26T13:53:25.605Z,4.53
2018-05-26T13:55:54.364Z,4.50
2018-05-26T13:58:23.078Z,4.90
2018-05-26T14:00:51.675Z,4.70
2018-05-26T14:03:20.357Z,4.70
2018-05-26T14:05:48.931Z,4.57
2018-05-26T14:08:17.685Z,4.77
2018-05-26T14:10:47.030Z,4.27
2018-05-26T14:13:15.621Z,4.70
2018-05-26T14:15:44.180Z,4.43
2018-05-26T14:18:12.740Z,4.63
2018-05-26T14:20:41.291Z,4.67
2018-05-26T14:23:09.873Z,4.83
2018-05-26T14:25:38.604Z,4.60
2018-05-26T14:28:07.187Z,4.73
2018-05-26T14:30:35.861Z,4.57
2018-05-26T14:33:04.571Z,4.63
2018-05-26T14:35:33.128Z,4.43
2018-05-26T14:38:01.696Z,4.60
2018-05-26T14:40:30.258Z,4.50
2018-05-26T14:42:58.798Z,5.23
2018-05-26T14:45:27.345Z,4.73
2018-05-26T14:47:55.908Z,4.33
2018-05-26T14:50:24.459Z,4.30
2018-05-26T14:52:53.059Z,4.83
2018-05-26T14:55:21.611Z,4.67
2018-05-26T14:57:50.163Z,4.50
2018-05-26T15:00:18.775Z,4.53
2018-05-26T15:02:47.524Z,4.73
2018-05-26T15:05:16.083Z,4.60
2018-05-26T15:07:44.641Z,4.40
2018-05-26T15:10:12.831Z,5.27
2018-05-26T15:12:41.395Z,5.00
2018-05-26T15:15:10.147Z,4.80
2018-05-26T15:17:38.711Z,4.83
2018-05-26T15:20:07.275Z,4.80
2018-05-26T15:22:35.829Z,5.17
2018-05-26T15:25:04.398Z,5.17
2018-05-26T15:27:32.981Z,4.90
2018-05-26T15:30:01.527Z,5.03
2018-05-26T15:32:30.106Z,4.43
2018-05-26T15:34:58.661Z,4.80
2018-05-26T15:37:27.255Z,4.87
2018-05-26T15:39:55.798Z,4.90
2018-05-26T15:42:24.347Z,4.50
2018-05-26T15:44:53.103Z,4.50
2018-05-26T15:47:21.655Z,4.90
2018-05-26T15:49:50.204Z,4.90
2018-05-26T15:52:18.774Z,5.33
2018-05-26T15:54:47.328Z,5.07
2018-05-26T15:57:15.897Z,5.03
2018-05-26T15:59:44.468Z,5.00
2018-05-26T16:02:13.024Z,4.80
2018-05-26T16:04:41.603Z,5.00
2018-05-26T16:07:10.180Z,5.23
2018-05-26T16:09:38.766Z,4.37
2018-05-26T16:12:07.315Z,5.00
2018-05-26T16:14:35.866Z,4.60
2018-05-26T16:17:04.420Z,5.37
2018-05-26T16:19:32.967Z,5.00
2018-05-26T16:22:01.511Z,5.40
2018-05-26T16:24:30.063Z,5.23
2018-05-26T16:26:58.624Z,5.00
2018-05-26T16:29:27.188Z,4.90
2018-05-26T16:31:55.919Z,5.33
2018-05-26T16:34:24.468Z,5.00
2018-05-26T16:36:53.087Z,4.70
2018-05-26T16:39:21.639Z,4.97
2018-05-26T16:41:50.241Z,5.40
2018-05-26T16:44:18.995Z,5.00
2018-05-26T16:46:47.551Z,5.50
2018-05-26T16:49:16.120Z,7.10
2018-05-26T16:51:44.720Z,7.03
2018-05-26T16:54:13.284Z,6.13
2018-05-26T16:56:41.833Z,6.30
2018-05-26T16:59:10.388Z,6.20
2018-05-26T17:01:38.947Z,6.43
2018-05-26T17:04:07.519Z,6.47
2018-05-26T17:06:36.132Z,6.30
2018-05-26T17:09:03.771Z,6.77
2018-05-26T17:11:32.359Z,6.27
2018-05-26T17:14:00.910Z,5.83
2018-05-26T17:16:29.562Z,6.93
2018-05-26T17:18:58.271Z,6.20
2018-05-26T17:21:26.827Z,6.50
2018-05-26T17:23:55.384Z,6.27
2018-05-26T17:26:24.052Z,6.10
2018-05-26T17:28:52.604Z,5.57
2018-05-26T17:31:21.163Z,6.10
2018-05-26T17:33:49.708Z,6.33
2018-05-26T17:36:18.276Z,6.40
2018-05-26T17:38:46.831Z,6.03
2018-05-26T17:41:15.400Z,6.73
2018-05-26T17:43:43.594Z,6.20
2018-05-26T17:46:12.244Z,6.40
2018-05-26T17:48:40.808Z,6.17
2018-05-26T17:51:09.394Z,6.73
2018-05-26T17:53:37.948Z,5.87
2018-05-26T17:56:06.503Z,6.60
2018-05-26T17:58:35.057Z,6.23
2018-05-26T18:01:03.608Z,6.57
2018-05-26T18:03:32.189Z,6.50
2018-05-26T18:06:00.756Z,7.20
2018-05-26T18:08:29.339Z,6.17
2018-05-26T18:10:58.071Z,6.80
2018-05-26T18:13:26.632Z,6.37
2018-05-26T18:15:55.378Z,6.27
2018-05-26T18:18:23.958Z,6.63
2018-05-26T18:20:52.515Z,6.47
2018-05-26T18:23:21.092Z,6.90
2018-05-26T18:25:49.663Z,7.07
2018-05-26T18:28:18.228Z,7.17
2018-05-26T18:30:46.799Z,5.40
2018-05-26T18:33:15.371Z,6.03
2018-05-26T18:35:43.919Z,6.00
2018-05-26T18:38:12.462Z,6.50
2018-05-26T18:40:41.010Z,6.47
2018-05-26T18:43:09.584Z,6.67
2018-05-26T18:45:38.189Z,5.50
2018-05-26T18:48:06.740Z,6.23
2018-05-26T18:50:35.287Z,6.93
2018-05-26T18:53:03.895Z,6.13
2018-05-26T18:55:32.490Z,7.43
2018-05-26T18:58:01.079Z,6.73
2018-05-26T19:00:29.652Z,6.83
2018-05-26T19:02:57.975Z,8.20
2018-05-26T19:05:26.531Z,9.10
2018-05-26T19:07:55.189Z,7.23
2018-05-26T19:10:23.746Z,7.93
2018-05-26T19:12:52.310Z,7.60
2018-05-26T19:15:20.889Z,7.87
2018-05-26T19:17:49.525Z,7.70
2018-05-26T19:20:18.081Z,6.77
2018-05-26T19:22:46.667Z,6.73
2018-05-26T19:25:15.276Z,7.40
2018-05-26T19:27:43.875Z,7.27
2018-05-26T19:30:12.447Z,7.17
2018-05-26T19:32:41.002Z,7.00
2018-05-26T19:35:09.559Z,7.30
2018-05-26T19:37:38.134Z,7.43
2018-05-26T19:40:06.685Z,7.07
2018-05-26T19:42:35.239Z,7.37
2018-05-26T19:45:03.854Z,7.70
2018-05-26T19:47:32.403Z,7.67
2018-05-26T19:50:00.972Z,7.37
2018-05-26T19:52:29.711Z,9.67
2018-05-26T19:54:58.281Z,7.57
2018-05-26T19:57:26.841Z,10.27
2018-05-26T19:59:55.484Z,9.83
2018-05-26T20:02:24.048Z,18.17
2018-05-26T20:04:52.651Z,16.30
2018-05-26T20:07:21.308Z,16.60
2018-05-26T20:09:49.912Z,15.73
2018-05-26T20:12:18.502Z,10.37
2018-05-26T20:14:47.061Z,49.97
2018-05-26T20:17:15.676Z,12.37
2018-05-26T20:19:44.235Z,10.50
2018-05-26T20:22:12.796Z,9.20
2018-05-26T20:24:41.356Z,9.40
2018-05-26T20:27:09.916Z,8.63
2018-05-26T20:29:38.529Z,8.10
2018-05-26T20:32:07.097Z,9.07
2018-05-26T20:34:35.657Z,8.13
2018-05-26T20:37:04.228Z,9.03
2018-05-26T20:39:34.647Z,8.87
2018-05-26T20:42:03.297Z,9.33
2018-05-26T20:44:31.851Z,9.10
2018-05-26T20:47:00.415Z,8.57
2018-05-26T20:49:28.971Z,8.60
2018-05-26T20:51:57.598Z,8.70
2018-05-26T20:54:26.646Z,9.23
2018-05-26T20:56:55.199Z,9.00
2018-05-26T20:59:23.754Z,8.87
2018-05-26T21:01:52.889Z,13.87
2018-05-26T21:04:21.494Z,10.37
2018-05-26T21:06:50.129Z,9.73
2018-05-26T21:09:18.848Z,8.93
2018-05-26T21:11:47.408Z,8.97
2018-05-26T21:14:15.964Z,9.27
2018-05-26T21:16:44.516Z,8.80
2018-05-26T21:19:13.066Z,9.60
2018-05-26T21:21:41.631Z,10.03
2018-05-26T21:24:10.214Z,9.70
2018-05-26T21:26:38.783Z,9.73
2018-05-26T21:29:08.531Z,9.57
2018-05-26T21:31:37.367Z,9.90
2018-05-26T21:34:05.981Z,10.03
2018-05-26T21:36:34.677Z,10.03
2018-05-26T21:39:03.288Z,9.63
2018-05-26T21:41:31.844Z,9.87
2018-05-26T21:44:00.401Z,9.00
2018-05-26T21:46:28.971Z,10.20
2018-05-26T21:48:57.540Z,9.87
2018-05-26T21:51:26.091Z,9.70
2018-05-26T21:53:54.651Z,10.23
2018-05-26T21:56:23.207Z,9.57
2018-05-26T21:58:51.765Z,8.80
2018-05-26T22:01:20.335Z,9.13
2018-05-26T22:03:48.886Z,8.17
2018-05-26T22:06:17.436Z,9.30
2018-05-26T22:08:46.027Z,9.37
2018-05-26T22:11:14.575Z,9.20
2018-05-26T22:13:43.126Z,9.97
2018-05-26T22:16:11.742Z,9.53
2018-05-26T22:18:40.295Z,9.27
2018-05-26T22:21:08.847Z,9.13
2018-05-26T22:23:37.414Z,9.33
2018-05-26T22:26:05.974Z,9.73
2018-05-26T22:28:34.527Z,9.97
2018-05-26T22:31:03.090Z,8.83
2018-05-26T22:33:31.640Z,8.00
2018-05-26T22:36:00.204Z,9.07
2018-05-26T22:38:28.820Z,9.03
2018-05-26T22:40:57.527Z,9.30
2018-05-26T22:43:26.088Z,6.60
2018-05-26T22:45:54.643Z,7.13
2018-05-26T22:48:23.195Z,8.43
2018-05-26T22:50:51.754Z,6.80
2018-05-26T22:53:20.338Z,8.13
2018-05-26T22:55:48.890Z,9.27
2018-05-26T22:58:17.454Z,9.00
2018-05-26T23:00:46.020Z,8.90
2018-05-26T23:03:14.563Z,8.10
2018-05-26T23:05:43.117Z,8.40
2018-05-26T23:08:11.871Z,8.33
2018-05-26T23:10:40.431Z,7.73
2018-05-26T23:13:08.978Z,7.63
2018-05-26T23:15:37.539Z,8.30
2018-05-26T23:18:06.097Z,9.07
2018-05-26T23:20:34.657Z,9.23
2018-05-26T23:23:03.220Z,9.00
2018-05-26T23:25:31.800Z,8.80
2018-05-26T23:28:00.416Z,8.17
2018-05-26T23:30:28.963Z,7.53
2018-05-26T23:32:57.506Z,8.00
2018-05-26T23:35:26.066Z,8.80
2018-05-26T23:37:54.621Z,8.93
2018-05-26T23:40:23.175Z,7.73
2018-05-26T23:42:51.728Z,7.97
2018-05-26T23:45:20.286Z,7.23
2018-05-26T23:47:48.835Z,7.30
2018-05-26T23:50:17.382Z,8.23
2018-05-26T23:52:45.639Z,7.40
2018-05-26T23:55:14.190Z,7.20
2018-05-26T23:57:42.734Z,6.90
